Latest Weather Observations for Armidale Airport

IDN60801

Issued at 2:52 am EDT Saturday 29 February 2020 (issued every 10 minutes, with the page automatically refreshed every 10 minutes)

About weather observations | Map of weather stations | Latest weather observations for NSW | Other Formats
Station Details ID: 056238 Name: ARMIDALE AIRPORT AWS Lat: -30.53 Lon: 151.62 Height: 1079.0 m
Data from the previous 72 hours. | See also: Recent months at Armidale Airport
Date/Time
EDT
Temp
°C
App
Temp
°C
Dew
Point
°C
Rel
Hum
%
Delta-T
°C
Wind Press
QNH
hPa
Press
MSL
hPa
Rain since
9am
mm
Dir  Spd
km/h
Gust
km/h
Spd
kts
Gust
kts
29/02:30am 15.2 13.6 15.0 99 0.1 E 17 22 9 12 1018.3 1012.4 0.0
29/02:00am 15.1 12.9 14.9 99 0.1 E 20 26 11 14 1018.6 1012.8 0.0
29/01:30am 15.2 13.0 15.0 99 0.1 E 20 26 11 14 1018.6 1012.8 0.0
29/01:00am 15.3 12.8 15.1 99 0.1 E 22 32 12 17 1018.5 1012.6 0.0
29/12:30am 15.8 12.8 14.8 94 0.6 E 24 32 13 17 1018.5 1012.6 0.0
29/12:00am 15.9 12.9 14.9 94 0.6 E 24 33 13 18 1018.3 1012.4 0.0
 
Date/Time
EDT
Temp
°C
App
Temp
°C
Dew
Point
°C
Rel
Hum
%
Delta-T
°C
Wind Press
QNH
hPa
Press
MSL
hPa
Rain since
9am
mm
Dir  Spd
km/h
Gust
km/h
Spd
kts
Gust
kts
28/11:30pm 16.2 12.5 15.1 93 0.7 E 28 35 15 19 1018.1 1012.3 0.0
28/11:00pm 16.6 14.9 15.8 95 0.5 E 19 26 10 14 1017.9 1012.1 0.0
28/10:30pm 16.8 14.5 15.8 94 0.6 E 22 32 12 17 1017.9 1012.1 0.0
28/10:16pm 17.0 15.3 16.2 95 0.5 E 20 28 11 15 1017.9 1012.1 0.0
28/10:00pm 17.1 15.0 16.3 95 0.5 E 22 33 12 18 1017.6 1011.7 0.0
28/09:30pm 17.4 14.3 16.6 95 0.5 E 28 35 15 19 1017.1 1011.3 0.0
28/09:25pm 17.5 14.4 16.5 94 0.6 E 28 35 15 19 1017.1 1011.3 0.0
28/09:00pm 18.1 16.3 17.0 93 0.7 ENE 22 32 12 17 1016.6 1010.7 0.0
28/08:30pm 18.8 18.2 17.5 92 0.8 ENE 17 22 9 12 1016.0 1010.2 0.0
28/08:26pm 18.8 18.2 17.5 92 0.8 ENE 17 26 9 14 1015.9 1010.0 0.0
28/08:00pm 19.5 18.2 17.3 87 1.4 E 20 30 11 16 1015.3 1009.4 0.0
28/07:30pm 21.2 20.1 15.3 69 3.7 E 15 17 8 9 1014.8 1008.9 0.0
28/07:00pm 22.8 21.4 14.6 60 5.1 E 15 19 8 10 1014.3 1008.3 0.0
28/06:30pm 24.1 22.4 13.6 52 6.4 E 15 20 8 11 1013.9 1008.0 0.0
28/06:00pm 24.8 24.5 13.4 49 7.0 SE 7 11 4 6 1013.6 1007.7 0.0
28/05:30pm 24.7 23.6 12.0 45 7.6 SE 9 13 5 7 1013.5 1007.6 0.0
28/05:00pm 25.5 25.3 13.0 46 7.6 SSW 6 13 3 7 1013.3 1007.3 0.0
28/04:30pm 25.4 24.9 13.9 49 7.1 S 9 15 5 8 1013.3 1007.3 0.0
28/04:00pm 24.3 23.3 14.7 55 6.0 SE 13 19 7 10 1013.4 1007.4 0.0
28/03:30pm 24.5 24.8 14.6 54 6.2 SE 6 13 3 7 1013.5 1007.6 0.0
28/03:00pm 24.6 23.7 12.5 46 7.3 S 9 19 5 10 1013.5 1007.6 0.0
28/02:30pm 24.1 24.3 14.8 56 5.8 S 7 13 4 7 1013.7 1007.8 0.0
28/02:00pm 24.0 23.8 14.7 56 5.8 SSE 9 17 5 9 1013.8 1007.9 0.0
28/01:30pm 23.7 23.6 14.9 57 5.5 SSW 9 17 5 9 1014.0 1008.1 0.0
28/01:00pm 22.8 22.8 13.6 56 5.6 SSE 6 9 3 5 1014.1 1008.2 0.0
28/12:30pm 22.5 21.2 13.6 57 5.4 SW 13 19 7 10 1014.5 1008.6 0.0
28/12:00pm 22.3 22.1 14.7 62 4.7 WNW 9 15 5 8 1014.7 1008.8 0.0
28/11:30am 21.6 21.6 15.2 67 4.0 W 9 15 5 8 1014.9 1009.0 0.0
28/11:00am 21.4 21.5 15.5 69 3.7 SW 9 17 5 9 1014.9 1009.0 0.0
28/10:30am 20.9 21.3 14.8 68 3.8 SW 6 13 3 7 1014.7 1008.8 0.0
28/10:00am 19.7 19.8 16.5 82 2.0 WNW 11 15 6 8 1014.7 1008.8 0.0
28/09:30am 19.4 19.5 17.5 89 1.2 WSW 13 17 7 9 1014.5 1008.6 0.0
28/09:00am 18.6 19.2 17.8 95 0.5 WNW 11 17 6 9 1014.0 1008.1 0.2
28/08:30am 17.3 17.3 17.1 99 0.1 WNW 13 17 7 9 1013.8 1007.9 0.2
28/08:00am 15.9 16.1 15.7 99 0.1 W 9 11 5 6 1013.6 1007.7 0.2
28/07:30am 14.9 14.8 14.9 100 0.0 W 9 11 5 6 1013.5 1007.6 0.2
28/07:11am 13.5 13.2 13.3 99 0.1 NNW 7 9 4 5 1013.1 1007.2 0.2
28/07:00am 13.4 13.1 13.2 99 0.1 NNW 7 9 4 5 1013.0 1007.1 0.2
28/06:30am 13.1 12.9 12.9 99 0.1 WNW 6 7 3 4 1012.8 1006.9 0.2
28/06:22am 13.6 13.3 13.4 99 0.1 WNW 7 7 4 4 1012.7 1006.8 0.2
28/06:00am 13.6 14.3 13.4 99 0.1 NW 2 6 1 3 1012.5 1006.5 0.2
28/05:38am 13.6 13.5 13.4 99 0.1 NNW 6 7 3 4 1012.4 1006.4 0.2
28/05:30am 13.7 13.5 13.5 99 0.1 NNW 7 9 4 5 1012.4 1006.4 0.2
28/05:00am 13.2 12.8 13.0 99 0.1 NNW 7 7 4 4 1012.1 1006.2 0.2
28/04:30am 13.5 12.8 13.3 99 0.1 NNE 9 11 5 6 1012.3 1006.3 0.2
28/04:00am 13.9 13.7 13.7 99 0.1 NNE 7 7 4 4 1012.1 1006.2 0.2
28/03:38am 13.9 13.4 13.7 99 0.1 NNE 9 11 5 6 1012.3 1006.3 0.2
28/03:30am 13.8 13.6 13.6 99 0.1 NE 7 9 4 5 1012.3 1006.3 0.2
28/03:09am 14.1 14.2 13.9 99 0.1 ENE 6 7 3 4 1012.1 1006.2 0.2
28/03:00am 14.3 14.3 14.1 99 0.1 E 7 7 4 4 1012.3 1006.3 0.2
28/02:30am 14.4 15.7 14.2 99 0.1 CALM 0 0 0 0 1012.4 1006.4 0.2
28/02:10am 15.0 15.2 14.8 99 0.1 SE 7 9 4 5 1012.6 1006.7 0.2
28/02:02am 15.0 15.4 14.8 99 0.1 S 6 9 3 5 1012.7 1006.8 0.2
28/02:00am 15.1 15.6 14.9 99 0.1 S 6 9 3 5 1012.7 1006.8 0.2
28/01:44am 14.9 14.7 14.7 99 0.1 WSW 9 11 5 6 1012.9 1007.0 0.2
28/01:36am 14.8 14.6 14.6 99 0.1 SW 9 11 5 6 1012.9 1007.0 0.2
28/01:30am 15.1 14.6 14.9 99 0.1 SW 11 13 6 7 1013.0 1007.1 0.2
28/01:00am 15.1 16.3 14.9 99 0.1 NE 2 6 1 3 1013.0 1007.1 0.2
28/12:30am 15.7 15.8 15.5 99 0.1 ENE 9 13 5 7 1013.1 1007.2 0.2
28/12:00am 16.4 18.5 16.2 99 0.1 CALM 0 6 0 3 1013.5 1007.6 0.2
 
Date/Time
EDT
Temp
°C
App
Temp
°C
Dew
Point
°C
Rel
Hum
%
Delta-T
°C
Wind Press
QNH
hPa
Press
MSL
hPa
Rain since
9am
mm
Dir  Spd
km/h
Gust
km/h
Spd
kts
Gust
kts
27/11:30pm 16.7 18.9 16.5 99 0.1 CALM 0 0 0 0 1013.7 1007.8 0.2
27/11:00pm 16.8 18.7 16.6 99 0.1 NNW 2 6 1 3 1013.8 1007.9 0.2
27/10:30pm 17.5 17.2 17.3 99 0.1 E 15 17 8 9 1013.7 1007.8 0.2
27/10:00pm 17.7 17.5 17.5 99 0.1 E 15 20 8 11 1013.7 1007.8 0.2
27/09:30pm 17.7 17.1 17.5 99 0.1 E 17 20 9 11 1013.6 1007.7 0.2
27/09:00pm 18.0 17.9 17.8 99 0.1 ENE 15 19 8 10 1013.1 1007.2 0.2
27/08:30pm 18.5 18.1 18.0 97 0.3 ENE 17 20 9 11 1012.9 1007.0 0.2
27/08:00pm 19.2 18.9 18.2 94 0.6 E 17 22 9 12 1012.7 1006.8 0.2
27/07:30pm 20.2 20.2 18.0 87 1.4 E 15 20 8 11 1012.3 1006.3 0.2
27/07:00pm 23.0 23.3 16.1 65 4.4 WSW 9 13 5 7 1012.0 1006.1 0.2
27/06:30pm 24.3 23.7 16.6 62 4.9 WSW 15 20 8 11 1011.8 1005.9 0.2
27/06:00pm 23.7 21.9 15.5 60 5.2 WSW 19 26 10 14 1011.7 1005.7 0.2
27/05:30pm 25.3 22.6 15.6 55 6.2 WSW 24 30 13 16 1011.4 1005.4 0.2
27/05:00pm 25.4 23.4 16.5 58 5.7 WSW 22 33 12 18 1011.0 1005.1 0.2
27/04:30pm 25.3 24.1 17.0 60 5.4 WSW 19 24 10 13 1011.0 1005.1 0.2
27/04:00pm 25.0 22.4 15.0 53 6.3 W 22 28 12 15 1011.3 1005.3 0.2
27/03:30pm 25.6 23.9 16.2 56 6.0 W 20 28 11 15 1011.4 1005.4 0.2
27/03:00pm 25.8 23.9 15.2 52 6.7 WNW 19 24 10 13 1011.8 1005.9 0.2
27/02:30pm 25.4 24.2 16.0 56 6.0 WSW 17 26 9 14 1012.1 1006.2 0.2
27/02:00pm 25.3 24.3 16.7 59 5.6 W 17 26 9 14 1012.6 1006.7 0.2
27/01:30pm 25.3 25.3 16.2 57 5.8 WNW 11 19 6 10 1012.9 1007.0 0.2
27/01:00pm 25.2 26.0 18.2 65 4.6 WNW 11 24 6 13 1013.1 1007.2 0.2
27/12:30pm 24.2 25.7 17.7 67 4.2 S 6 15 3 8 1013.6 1007.7 0.2
27/12:00pm 23.7 26.0 17.7 69 3.9 NNW 2 11 1 6 1013.9 1008.0 0.2
27/11:30am 22.7 24.7 16.9 70 3.7 NE 2 9 1 5 1014.1 1008.2 0.2
27/11:00am 21.4 22.3 16.1 72 3.3 NW 6 11 3 6 1014.4 1008.5 0.2
27/10:30am 20.5 21.9 16.3 77 2.6 NE 4 9 2 5 1014.4 1008.5 0.0
27/10:00am 19.6 20.7 17.2 86 1.5 ENE 7 13 4 7 1014.5 1008.6 0.0
27/09:30am 18.0 18.2 16.7 92 0.8 ENE 11 13 6 7 1014.6 1008.7 0.0
27/09:00am 16.6 16.1 16.0 96 0.4 ENE 13 17 7 9 1014.5 1008.6 5.2
27/08:30am 15.9 16.5 15.7 99 0.1 NE 7 11 4 6 1014.4 1008.5 5.2
27/08:00am 15.2 15.7 15.0 99 0.1 ENE 6 7 3 4 1014.3 1008.3 5.2
27/07:30am 14.6 14.7 14.4 99 0.1 SE 7 9 4 5 1014.0 1008.1 5.2
27/07:00am 13.7 14.4 13.5 99 0.1 NNE 2 9 1 5 1013.6 1007.7 5.2
27/06:30am 13.9 15.1 13.7 99 0.1 CALM 0 0 0 0 1013.1 1007.2 5.2
27/06:00am 14.3 14.5 14.1 99 0.1 WSW 6 9 3 5 1012.9 1007.0 5.2
27/05:30am 13.9 15.1 13.7 99 0.1 CALM 0 0 0 0 1012.7 1006.8 5.2
27/05:00am 14.1 15.3 13.9 99 0.1 CALM 0 0 0 0 1012.8 1006.9 5.2
27/04:30am 14.4 14.6 14.2 99 0.1 SSW 6 7 3 4 1012.7 1006.8 5.2
27/04:00am 14.0 13.5 13.8 99 0.1 WNW 9 11 5 6 1012.4 1006.4 5.2
27/03:30am 14.8 14.9 14.5 98 0.2 WSW 7 7 4 4 1012.4 1006.4 5.2
27/03:00am 15.4 15.2 14.6 95 0.5 SSW 9 13 5 7 1012.6 1006.7 5.2
27/02:30am 15.0 15.2 14.8 99 0.1 W 7 9 4 5 1012.8 1006.9 5.2
27/02:00am 15.6 16.1 15.1 97 0.3 WNW 6 7 3 4 1013.4 1007.4 5.2
27/01:30am 15.5 15.1 15.2 98 0.2 NW 11 13 6 7 1013.7 1007.8 5.2
27/01:00am 15.5 14.8 15.3 99 0.1 WNW 13 15 7 8 1014.3 1008.3 5.2
27/12:30am 15.8 16.5 15.6 99 0.1 NNE 6 9 3 5 1014.8 1008.9 5.0
27/12:00am 15.6 14.5 15.4 99 0.1 NE 15 17 8 9 1014.7 1008.8 5.0
 
Date/Time
EDT
Temp
°C
App
Temp
°C
Dew
Point
°C
Rel
Hum
%
Delta-T
°C
Wind Press
QNH
hPa
Press
MSL
hPa
Rain since
9am
mm
Dir  Spd
km/h
Gust
km/h
Spd
kts
Gust
kts
26/11:30pm 15.7 14.3 15.5 99 0.1 NE 17 20 9 11 1015.3 1009.4 5.0
26/11:00pm 15.6 13.8 15.4 99 0.1 NE 19 26 10 14 1015.5 1009.6 5.0
26/10:30pm 15.5 13.4 15.3 99 0.1 NNE 20 26 11 14 1014.9 1009.0 5.0
26/10:00pm 15.6 13.6 15.4 99 0.1 NE 20 26 11 14 1014.5 1008.6 4.6
26/09:30pm 15.8 14.4 15.6 99 0.1 SE 17 20 9 11 1015.1 1009.3 4.6
26/09:02pm 15.5 13.4 15.3 99 0.1 S 20 28 11 15 1015.4 1009.5 4.4
26/09:00pm 15.4 12.9 15.2 99 0.1 S 22 28 12 15 1015.4 1009.5 4.4
26/08:36pm 15.2 10.5 14.9 98 0.2 SSW 33 52 18 28 1015.6 1009.7 2.0
26/08:30pm 15.7 9.8 14.7 94 0.6 SSW 39 56 21 30 1015.4 1009.5 1.4
26/08:26pm 16.3 10.4 14.7 90 1.0 SW 39 56 21 30 1015.4 1009.5 1.4
26/08:24pm 16.8 11.9 14.4 86 1.4 WSW 33 56 18 30 1015.3 1009.4 1.4
26/08:18pm 18.6 16.7 15.7 83 1.8 W 20 44 11 24 1014.9 1009.0 1.4
26/08:00pm 19.5 19.0 17.8 90 1.1 NW 17 24 9 13 1013.7 1007.8 1.4
26/07:30pm 19.9 20.2 17.9 88 1.3 NW 13 17 7 9 1013.3 1007.3 1.4
26/07:00pm 20.4 21.4 17.8 85 1.7 WNW 9 11 5 6 1012.8 1006.9 1.4
26/06:30pm 21.7 21.5 17.5 77 2.7 NW 15 22 8 12 1011.8 1005.9 1.4
26/06:00pm 23.3 22.6 18.2 73 3.3 NW 19 26 10 14 1011.8 1005.9 1.4
26/05:30pm 22.9 22.2 18.2 75 3.1 WNW 19 26 10 14 1012.4 1006.4 1.4
26/05:00pm 22.6 21.7 17.7 74 3.2 WNW 19 26 10 14 1012.3 1006.3 1.4
26/04:30pm 22.7 20.6 17.2 71 3.5 WNW 24 32 13 17 1012.0 1006.1 1.4
26/04:00pm 24.0 22.5 17.7 68 4.1 WNW 22 33 12 18 1012.1 1006.2 1.4
26/03:30pm 22.8 22.3 17.9 74 3.2 W 17 22 9 12 1012.5 1006.5 1.4
26/03:00pm 24.0 22.9 18.6 72 3.6 W 22 32 12 17 1013.1 1007.2 1.4
26/02:30pm 23.1 23.5 19.1 78 2.7 WNW 15 24 8 13 1013.7 1007.8 1.4
26/02:00pm 20.6 22.0 20.4 99 0.1 WSW 13 20 7 11 1014.3 1008.3 1.4
26/01:30pm 19.1 19.0 18.8 98 0.2 SW 17 22 9 12 1014.7 1008.8 0.8
26/01:23pm 19.0 18.4 18.8 99 0.1 SW 20 26 11 14 1014.8 1008.9 0.8
26/01:05pm 18.2 15.4 15.3 83 1.8 WSW 24 46 13 25 1015.0 1009.1 0.6
26/01:00pm 20.9 20.1 17.9 83 1.9 WSW 19 26 10 14 1015.0 1009.1 0.0
26/12:30pm 22.1 20.4 17.2 74 3.2 WNW 22 32 12 17 1015.1 1009.3 0.0
26/12:00pm 23.0 21.1 19.4 80 2.4 WNW 28 35 15 19 1015.5 1009.6 0.0
26/11:30am 22.5 20.9 18.3 77 2.7 WNW 24 33 13 18 1015.9 1010.0 0.0
26/11:00am 22.9 22.0 19.1 79 2.5 WNW 22 33 12 18 1016.0 1010.2 0.0
26/10:30am 22.0 20.5 18.6 81 2.2 WNW 24 32 13 17 1016.4 1010.5 0.0
26/10:00am 20.5 18.8 17.3 82 2.0 WNW 22 32 12 17 1016.5 1010.6 0.0
26/09:30am 19.8 18.5 16.8 83 1.9 WNW 19 24 10 13 1016.4 1010.5 0.0
26/09:00am 20.0 19.0 17.6 86 1.5 NW 19 30 10 16 1016.4 1010.5 0.6
26/08:30am 18.5 18.9 17.3 93 0.8 WNW 11 15 6 8 1016.5 1010.6 0.6
26/08:00am 18.4 17.8 16.7 90 1.1 WNW 15 20 8 11 1016.5 1010.6 0.6
26/07:30am 16.7 16.3 16.2 97 0.3 WNW 13 17 7 9 1016.4 1010.5 0.6
26/07:00am 16.5 15.7 16.0 97 0.3 WNW 15 17 8 9 1016.1 1010.3 0.6
26/06:30am 16.4 16.8 16.2 99 0.1 WNW 9 11 5 6 1016.0 1010.2 0.6
26/06:00am 16.7 16.8 16.5 99 0.1 WNW 11 15 6 8 1015.9 1010.0 0.6
26/05:30am 16.5 16.9 16.3 99 0.1 WNW 9 9 5 5 1015.8 1009.9 0.6
26/05:00am 16.2 16.5 16.0 99 0.1 WNW 9 11 5 6 1015.6 1009.7 0.6
26/04:30am 16.2 16.9 16.0 99 0.1 W 7 9 4 5 1015.7 1009.8 0.6
26/04:00am 16.3 17.0 16.1 99 0.1 SSW 7 9 4 5 1015.7 1009.8 0.6
26/03:30am 16.3 17.0 16.1 99 0.1 SSW 7 9 4 5 1015.9 1010.0 0.6
26/03:00am 16.4 18.5 16.2 99 0.1 CALM 0 0 0 0 1016.0 1010.2 0.6

Other formats

Comma delimited format used in spreadsheet applications
http://www.bom.gov.au/fwo/IDN60801/IDN60801.95773.axf

JavaScript Object Notation format (JSON) in row-major order
http://www.bom.gov.au/fwo/IDN60801/IDN60801.95773.json

Data quality

Most of these data are generated automatically and are frequently updated. Quality checks on data are not normally performed. It is possible for incorrect values to appear. Refer to information at About Latest Weather Observations and please check the disclaimer before using these data.